Tilden, TX (78072)

10:33 PM CST on March 03, 2015 (GMT -0600)
Huajuco Road | Change Station
CLOSE
Current Station
Personal Weather Station
Location: Cotulla, TX
Elevation: 394 ft
Nearby Weather Stations

Elev 394 ft 28.19 °N, 99.01 °W | Updated 5 seconds ago

Overcast
Overcast
58.4 °F
Feels Like 58.4 °F
N
5.8
Wind Variable Wind from North
Gusts 6.0 mph

Today
High -- | Low -- °F
--% Chance of Precip.
Yesterday
High -- | Low -- °F
Precip. -- in
6:57 AM 6:35 PM
Waxing Gibbous, 98% visible
Pressure 29.83 in
Visibility 1.2 miles
Clouds Overcast 200 ft
Dew Point 58 °F
Humidity 100%
Rainfall 0.02 in
Snow Depth Not available.
UV 0 out of 12
Pollen 8.90 out of 12
Air Quality Not available.
Flu Activity Not available.
METAR KCOT 040353Z AUTO 07009KT 1 1/4SM BR OVC002 15/14 A2984 RMK AO2 SLP101 T01500139

More Conditions Fewer Conditions

Pressure 29.83 in
Visibility 1.2 miles
Clouds Overcast 200 ft
Dew Point 58 °F
Humidity 100%
Rainfall 0.02 in
Snow Depth Not available.
UV 0 out of 12
Pollen 8.90 out of 12
Air Quality Not available.
Flu Activity Not available.
METAR KCOT 040353Z AUTO 07009KT 1 1/4SM BR OVC002 15/14 A2984 RMK AO2 SLP101 T01500139

More Conditions Fewer Conditions

Nowcast | as of 8:21 PM CST on March 3, 2015

Light drizzle...with dense fog at times...will continue to affect south Texas this evening...as well as the bays and waterways...and the adjacent coastal waters. Through midnight CST...the visibility will periodically range from near zero across the coastal Bend and coastal plains...to 4 miles over the brush country. The Victoria Crossroads may briefly experience a visibility of 5 miles in a light mist. Precipitation accumulations will mainly be a trace...but a few locations could record a hundredth of an inch.

×

10-Day Weather Forecast

Almanac

Astronomy

Mar. 03, 2015 Rise Set
Actual Time
Civil Twilight
Nautical Twilight
Astronomical Twilight
Moon
Length of Visible Light
Length of Day
Tomorrow will be .
, % of the Moon is Illuminated

Today's Extremes

State Highs State Lows

Community

WunderPhotos

Upload Photos

1,802,385 photos uploaded!

WunderBlogs® & News

Nearby

Air Quality

  Air Quality AQ Index Pollutant
Not available.

Snow Depth

Station Depth Elevation

Earthquake Activity

City Distance Mag. Time & Date
Minimum magnitude displayed is 2.5.

Coastal Water Temperatures

Place Temperature

Nearby Weather Stations